createdAt,value
2023-01-11T00:00:42.172Z,101278.41
2023-01-11T00:03:09.231Z,101274.16
2023-01-11T00:05:43.385Z,101265.75
2023-01-11T00:08:11.350Z,101283.09
2023-01-11T00:10:38.318Z,101273.97
2023-01-11T00:13:05.563Z,101257.38
2023-01-11T00:15:32.774Z,101275.22
2023-01-11T00:17:59.820Z,101258.44
2023-01-11T00:20:26.648Z,101265.75
2023-01-11T00:22:53.418Z,101255.94
2023-01-11T00:25:20.286Z,101225.25
2023-01-11T00:27:49.507Z,101264.47
2023-01-11T00:30:18.362Z,101290.19
2023-01-11T00:32:45.558Z,101269.34
2023-01-11T00:35:13.121Z,101279.66
2023-01-11T00:37:40.440Z,101294.31
2023-01-11T00:40:08.376Z,101315.34
2023-01-11T00:42:53.500Z,101293.06
2023-01-11T00:45:38.859Z,101286.28
2023-01-11T00:48:07.025Z,101275.97
2023-01-11T00:50:37.038Z,101316.06
2023-01-11T00:53:04.895Z,101273.09
2023-01-11T00:55:32.298Z,101286.25
2023-01-11T00:57:59.946Z,101264.13
2023-01-11T01:00:28.170Z,101257.69
2023-01-11T01:02:55.084Z,101253.41
2023-01-11T01:05:21.839Z,101219.16
2023-01-11T01:07:48.667Z,101256.25
2023-01-11T01:10:17.700Z,101252.88
2023-01-11T01:13:03.848Z,101262.69
2023-01-11T01:15:30.998Z,101282.13
2023-01-11T01:17:57.875Z,101242.69
2023-01-11T01:20:24.964Z,101246.25
2023-01-11T01:22:52.030Z,101249.81
2023-01-11T01:25:19.148Z,101254.06
2023-01-11T01:27:45.928Z,101245.84
2023-01-11T01:30:13.293Z,101229.09
2023-01-11T01:32:40.177Z,101226.91
2023-01-11T01:35:08.263Z,101240.53
2023-01-11T01:38:08.762Z,101235.84
2023-01-11T01:40:47.115Z,101231.22
2023-01-11T01:43:17.086Z,101218.06
2023-01-11T01:45:43.961Z,101181.69
2023-01-11T01:48:13.730Z,101227.31
2023-01-11T01:50:48.961Z,101213.94
2023-01-11T01:53:28.486Z,101214.47
2023-01-11T01:56:00.569Z,101230.91
2023-01-11T01:58:33.028Z,101241.09
2023-01-11T02:01:22.664Z,101223.97
2023-01-11T02:03:51.546Z,101251.81
2023-01-11T02:06:21.382Z,101224.69
2023-01-11T02:08:53.534Z,101256.94
2023-01-11T02:11:32.665Z,101220.59
2023-01-11T02:14:03.035Z,101259.13
2023-01-11T02:16:30.405Z,101244.47
2023-01-11T02:18:58.215Z,101246.81
2023-01-11T02:21:34.493Z,101229.16
2023-01-11T02:24:42.629Z,101236.81
2023-01-11T02:27:29.091Z,101235.22
2023-01-11T02:30:29.760Z,101256.59
2023-01-11T02:33:27.095Z,101241.25
2023-01-11T02:36:05.635Z,101243.41
2023-01-11T02:38:39.783Z,101249.47
2023-01-11T02:41:25.986Z,101238.22
2023-01-11T02:44:31.430Z,101240.91
2023-01-11T02:47:07.702Z,101243.41
2023-01-11T02:49:51.885Z,101245.91
2023-01-11T02:52:26.754Z,101240.91
2023-01-11T02:54:58.442Z,101251.81
2023-01-11T02:57:29.569Z,101233.09
2023-01-11T02:59:58.120Z,101236.66
2023-01-11T03:02:25.383Z,101262.69
2023-01-11T03:04:52.227Z,101237.00
2023-01-11T03:07:18.866Z,101237.00
2023-01-11T03:09:52.620Z,101255.91
2023-01-11T03:12:56.434Z,101247.69
2023-01-11T03:16:02.591Z,101229.47
2023-01-11T03:18:41.103Z,101230.91
2023-01-11T03:21:33.935Z,101228.09
2023-01-11T03:24:31.038Z,101230.59
2023-01-11T03:27:29.290Z,101210.63
2023-01-11T03:30:12.475Z,101212.03
2023-01-11T03:32:41.911Z,101203.47
2023-01-11T03:35:46.642Z,101206.13
2023-01-11T03:38:24.981Z,101209.91
2023-01-11T03:41:05.076Z,101198.47
2023-01-11T03:43:36.646Z,101225.59
2023-01-11T03:46:14.937Z,101220.59
2023-01-11T03:48:41.634Z,101225.47
2023-01-11T03:51:14.259Z,101231.88
2023-01-11T03:53:44.474Z,101234.00
2023-01-11T03:56:14.226Z,101234.88
2023-01-11T03:58:41.027Z,101229.88
2023-01-11T04:01:08.053Z,101222.56
2023-01-11T04:03:34.794Z,101214.38
2023-01-11T04:06:02.567Z,101231.31
2023-01-11T04:08:31.084Z,101236.47
2023-01-11T04:10:58.173Z,101212.53
2023-01-11T04:13:24.951Z,101190.59
2023-01-11T04:15:54.380Z,101193.25
2023-01-11T04:18:21.147Z,101188.13
2023-01-11T04:20:47.859Z,101199.19
2023-01-11T04:23:15.301Z,101210.03
2023-01-11T04:25:41.989Z,101224.47
2023-01-11T04:28:08.718Z,101201.69
2023-01-11T04:30:36.088Z,101204.16
2023-01-11T04:33:02.918Z,101184.53
2023-01-11T04:35:29.650Z,101207.38
2023-01-11T04:37:57.537Z,101198.25
2023-01-11T04:40:25.564Z,101187.03
2023-01-11T04:42:52.328Z,101192.03
2023-01-11T04:45:19.187Z,101207.72
2023-01-11T04:47:45.897Z,101197.94
2023-01-11T04:50:12.897Z,101204.88
2023-01-11T04:52:41.709Z,101200.06
2023-01-11T04:55:09.315Z,101204.16
2023-01-11T04:57:36.527Z,101202.38
2023-01-11T05:00:08.691Z,101186.34
2023-01-11T05:02:35.466Z,101198.81
2023-01-11T05:05:02.471Z,101209.16
2023-01-11T05:07:30.274Z,101232.72
2023-01-11T05:09:56.983Z,101199.50
2023-01-11T05:12:23.887Z,101185.94
2023-01-11T05:14:50.646Z,101196.84
2023-01-11T05:17:17.705Z,101221.66
2023-01-11T05:19:44.423Z,101237.72
2023-01-11T05:22:11.280Z,101207.94
2023-01-11T05:24:37.994Z,101225.91
2023-01-11T05:27:04.830Z,101225.38
2023-01-11T05:29:31.564Z,101223.78
2023-01-11T05:31:58.346Z,101235.88
2023-01-11T05:34:25.186Z,101260.50
2023-01-11T05:36:51.927Z,101249.06
2023-01-11T05:39:18.652Z,101251.75
2023-01-11T05:41:45.385Z,101262.97
2023-01-11T05:44:32.030Z,101271.53
2023-01-11T05:46:59.297Z,101274.34
2023-01-11T05:49:26.218Z,101290.78
2023-01-11T05:51:52.951Z,101261.53
2023-01-11T05:54:19.686Z,101276.84
2023-01-11T05:56:46.590Z,101281.16
2023-01-11T05:59:13.326Z,101274.66
2023-01-11T06:01:40.263Z,101279.31
2023-01-11T06:04:08.465Z,101266.09
2023-01-11T06:06:35.496Z,101276.28
2023-01-11T06:09:02.351Z,101279.66
2023-01-11T06:11:29.150Z,101285.00
2023-01-11T06:13:56.128Z,101272.50
2023-01-11T06:16:23.864Z,101269.28
2023-01-11T06:18:53.072Z,101277.13
2023-01-11T06:21:20.726Z,101272.13
2023-01-11T06:23:50.850Z,101280.69
2023-01-11T06:26:20.422Z,101284.22
2023-01-11T06:28:47.563Z,101289.19
2023-01-11T06:31:17.301Z,101287.59
2023-01-11T06:33:45.099Z,101288.28
2023-01-11T06:36:13.139Z,101271.28
2023-01-11T06:38:39.902Z,101268.06
2023-01-11T06:41:10.945Z,101261.59
2023-01-11T06:43:41.072Z,101272.28
2023-01-11T06:46:12.620Z,101257.63
2023-01-11T06:48:39.533Z,101267.94
2023-01-11T06:51:06.353Z,101254.72
2023-01-11T06:53:33.185Z,101234.38
2023-01-11T06:56:00.256Z,101244.03
2023-01-11T06:58:27.240Z,101255.28
2023-01-11T07:00:57.166Z,101248.50
2023-01-11T07:03:25.760Z,101249.00
2023-01-11T07:05:54.484Z,101246.47
2023-01-11T07:08:21.362Z,101256.13
2023-01-11T07:10:48.611Z,101243.94
2023-01-11T07:13:17.254Z,101245.66
2023-01-11T07:15:46.103Z,101230.25
2023-01-11T07:18:12.896Z,101229.19
2023-01-11T07:20:40.760Z,101246.41
2023-01-11T07:23:07.823Z,101239.94
2023-01-11T07:25:34.989Z,101248.09
2023-01-11T07:28:06.876Z,101250.94
2023-01-11T07:30:44.773Z,101228.44
2023-01-11T07:33:22.407Z,101260.91
2023-01-11T07:35:49.673Z,101258.75
2023-01-11T07:38:16.430Z,101254.03
2023-01-11T07:40:43.249Z,101255.25
2023-01-11T07:43:14.901Z,101260.59
2023-01-11T07:45:49.275Z,101262.13
2023-01-11T07:48:21.308Z,101244.19
2023-01-11T07:50:48.909Z,101242.47
2023-01-11T07:53:15.793Z,101270.75
2023-01-11T07:55:42.802Z,101255.66
2023-01-11T07:58:12.825Z,101253.09
2023-01-11T08:00:43.730Z,101266.66
2023-01-11T08:03:10.741Z,101234.81
2023-01-11T08:05:38.329Z,101241.03
2023-01-11T08:08:06.001Z,101256.97
2023-01-11T08:10:33.020Z,101233.38
2023-01-11T08:13:18.713Z,101260.19
2023-01-11T08:15:45.619Z,101219.00
2023-01-11T08:18:13.202Z,101220.13
2023-01-11T08:20:40.692Z,101236.03
2023-01-11T08:23:10.091Z,101213.66
2023-01-11T08:25:37.700Z,101210.69
2023-01-11T08:28:06.810Z,101214.31
2023-01-11T08:30:34.210Z,101200.19
2023-01-11T08:33:02.390Z,101205.34
2023-01-11T08:35:30.251Z,101201.38
2023-01-11T08:37:57.049Z,101197.84
2023-01-11T08:40:25.554Z,101185.06
2023-01-11T08:42:59.199Z,101193.94
2023-01-11T08:45:26.121Z,101179.63
2023-01-11T08:47:53.298Z,101162.44
2023-01-11T08:50:22.386Z,101149.19
2023-01-11T08:52:51.273Z,101154.66
2023-01-11T08:55:18.997Z,101157.66
2023-01-11T08:57:46.040Z,101127.88
2023-01-11T09:00:13.548Z,101126.19
2023-01-11T09:02:40.592Z,101132.06
2023-01-11T09:05:07.801Z,101146.84
2023-01-11T09:07:34.538Z,101129.47
2023-01-11T09:10:01.312Z,101140.88
2023-01-11T09:12:28.162Z,101139.88
2023-01-11T09:14:54.862Z,101124.19
2023-01-11T09:17:21.712Z,101120.97
2023-01-11T09:19:48.499Z,101103.81
2023-01-11T09:22:15.480Z,101103.00
2023-01-11T09:24:42.216Z,101082.63
2023-01-11T09:27:09.196Z,101098.56
2023-01-11T09:29:37.364Z,101109.91
2023-01-11T09:32:05.012Z,101103.41
2023-01-11T09:34:31.870Z,101109.59
2023-01-11T09:37:00.783Z,101129.97
2023-01-11T09:39:28.807Z,101134.22
2023-01-11T09:42:15.915Z,101156.94
2023-01-11T09:44:54.215Z,101136.72
2023-01-11T09:47:46.982Z,101132.25
2023-01-11T09:50:19.790Z,101113.34
2023-01-11T09:52:52.772Z,101099.50
2023-01-11T09:55:29.856Z,101100.38
2023-01-11T09:58:06.112Z,101111.59
2023-01-11T10:00:49.214Z,101099.22
2023-01-11T10:03:45.544Z,101106.47
2023-01-11T10:06:20.696Z,101118.59
2023-01-11T10:18:27.593Z,101086.75
2023-01-11T10:19:10.293Z,101109.63
2023-01-11T10:21:44.251Z,101082.03
2023-01-11T10:24:25.244Z,101078.19
2023-01-11T10:26:59.906Z,101075.97
2023-01-11T10:30:17.758Z,101083.63
2023-01-11T10:33:05.482Z,101072.88
2023-01-11T10:35:59.060Z,101064.50
2023-01-11T10:38:57.754Z,101049.44
2023-01-11T10:41:37.638Z,101076.88
2023-01-11T10:44:19.077Z,101079.84
2023-01-11T10:46:52.830Z,101075.72
2023-01-11T10:49:28.667Z,101063.94
2023-01-11T10:52:06.222Z,101061.56
2023-01-11T10:54:36.732Z,101072.44
2023-01-11T10:58:01.577Z,101046.22
2023-01-11T11:00:37.465Z,101037.94
2023-01-11T11:03:15.159Z,101049.16
2023-01-11T11:06:00.558Z,101058.16
2023-01-11T11:08:41.927Z,101061.56
2023-01-11T11:11:17.085Z,101047.38
2023-01-11T11:14:02.015Z,101052.06
2023-01-11T11:16:31.562Z,101065.38
2023-01-11T11:18:59.176Z,101061.06
2023-01-11T11:21:30.447Z,101084.28
2023-01-11T11:24:02.503Z,101065.41
2023-01-11T11:26:39.557Z,101041.19
2023-01-11T11:29:08.995Z,101030.84
2023-01-11T11:31:42.216Z,101041.19
2023-01-11T11:34:18.587Z,101014.94
2023-01-11T11:36:48.910Z,101016.72
2023-01-11T11:39:31.978Z,101007.44
2023-01-11T11:42:16.162Z,101011.09
2023-01-11T11:44:42.965Z,101006.09
2023-01-11T11:47:16.847Z,101002.81
2023-01-11T11:49:44.095Z,101003.56
2023-01-11T11:52:16.624Z,100976.56
2023-01-11T11:54:52.819Z,100999.59
2023-01-11T11:57:31.897Z,101004.75
2023-01-11T12:00:05.701Z,101003.41
2023-01-11T12:02:36.151Z,101003.72
2023-01-11T12:05:10.333Z,100980.41
2023-01-11T12:07:54.362Z,100985.56
2023-01-11T12:10:28.037Z,100983.97
2023-01-11T12:13:03.167Z,100973.06
2023-01-11T12:15:34.335Z,100993.13
2023-01-11T12:18:27.515Z,100968.78
2023-01-11T12:20:55.352Z,100972.44
2023-01-11T12:23:24.385Z,100981.31
2023-01-11T12:26:09.475Z,100987.22
2023-01-11T12:28:48.174Z,100981.91
2023-01-11T12:31:39.344Z,100989.88
2023-01-11T12:34:11.861Z,100980.13
2023-01-11T12:36:51.318Z,100976.88
2023-01-11T12:39:31.974Z,100975.09
2023-01-11T12:42:17.398Z,100968.63
2023-01-11T12:45:08.416Z,100959.91
2023-01-11T12:47:56.823Z,100945.91
2023-01-11T12:50:46.587Z,100941.19
2023-01-11T12:53:25.639Z,100932.94
2023-01-11T12:56:00.462Z,100977.78
2023-01-11T12:58:50.233Z,100927.75
2023-01-11T13:01:27.119Z,100935.28
2023-01-11T13:04:24.684Z,100946.22
2023-01-11T13:07:06.448Z,100933.22
2023-01-11T13:09:42.334Z,100947.53
2023-01-11T13:12:27.437Z,100947.69
2023-01-11T13:14:58.178Z,100958.03
2023-01-11T13:17:36.357Z,100949.75
2023-01-11T13:20:16.634Z,100970.56
2023-01-11T13:22:54.242Z,100964.50
2023-01-11T13:25:31.996Z,100968.34
2023-01-11T13:28:04.949Z,100965.09
2023-01-11T13:30:32.093Z,100958.59
2023-01-11T13:33:14.227Z,100941.19
2023-01-11T13:35:46.799Z,100938.78
2023-01-11T13:38:35.046Z,100933.22
2023-01-11T13:41:15.590Z,100919.94
2023-01-11T13:43:54.131Z,100934.09
2023-01-11T13:46:32.893Z,100920.38
2023-01-11T13:49:19.252Z,100928.50
2023-01-11T13:51:53.223Z,100909.63
2023-01-11T13:54:29.200Z,100890.56
2023-01-11T13:57:04.360Z,100887.47
2023-01-11T13:59:45.687Z,100857.06
2023-01-11T14:02:52.700Z,100878.59
2023-01-11T14:05:22.796Z,100874.75
2023-01-11T14:08:22.580Z,100856.47
2023-01-11T14:11:27.425Z,100832.88
2023-01-11T14:14:18.180Z,100862.22
2023-01-11T14:16:56.823Z,100857.50
2023-01-11T14:19:45.114Z,100843.94
2023-01-11T14:22:48.317Z,100840.25
2023-01-11T14:25:42.806Z,100829.59
2023-01-11T14:28:15.683Z,100852.34
2023-01-11T14:31:07.251Z,100891.75
2023-01-11T14:33:47.807Z,100899.28
2023-01-11T14:36:26.748Z,100918.59
2023-01-11T14:39:32.627Z,100959.78
2023-01-11T14:42:32.169Z,100964.19
2023-01-11T14:45:13.539Z,100965.69
2023-01-11T14:47:48.998Z,100943.25
2023-01-11T14:50:44.033Z,100943.81
2023-01-11T14:53:18.791Z,100964.34
2023-01-11T14:55:46.475Z,100950.00
2023-01-11T14:58:25.252Z,100973.78
2023-01-11T15:00:54.838Z,100960.34
2023-01-11T15:03:21.617Z,100954.13
2023-01-11T15:06:09.587Z,100950.59
2023-01-11T15:08:48.126Z,100935.25
2023-01-11T15:11:41.885Z,100928.31
2023-01-11T15:14:32.723Z,100926.69
2023-01-11T15:17:21.238Z,100938.19
2023-01-11T15:19:50.144Z,100932.13
2023-01-11T15:22:29.681Z,100932.28
2023-01-11T15:25:03.185Z,100924.44
2023-01-11T15:27:38.507Z,100915.44
2023-01-11T15:30:27.981Z,100923.72
2023-01-11T15:33:14.946Z,100915.16
2023-01-11T15:35:42.211Z,100920.91
2023-01-11T15:38:23.457Z,100912.22
2023-01-11T15:40:53.575Z,100901.59
2023-01-11T15:43:46.218Z,100897.75
2023-01-11T15:46:45.953Z,100925.75
2023-01-11T15:49:34.486Z,100926.81
2023-01-11T15:52:38.522Z,100922.50
2023-01-11T15:55:42.925Z,100926.22
2023-01-11T15:58:34.811Z,100902.47
2023-01-11T16:01:20.007Z,100912.50
2023-01-11T16:03:56.799Z,100916.78
2023-01-11T16:06:30.499Z,100915.72
2023-01-11T16:09:06.431Z,100915.16
2023-01-11T16:12:10.200Z,100905.72
2023-01-11T16:15:03.196Z,100908.38
2023-01-11T16:17:31.304Z,100916.91
2023-01-11T16:19:58.595Z,100912.06
2023-01-11T16:22:28.224Z,100910.03
2023-01-11T16:25:05.263Z,100904.13
2023-01-11T16:27:34.950Z,100899.09
2023-01-11T16:30:02.527Z,100897.22
2023-01-11T16:32:35.083Z,100869.47
2023-01-11T16:35:03.632Z,100873.88
2023-01-11T16:37:41.777Z,100852.78
2023-01-11T16:40:20.166Z,100838.03
2023-01-11T16:42:53.267Z,100829.03
2023-01-11T16:45:23.217Z,100819.31
2023-01-11T16:48:14.638Z,100836.72
2023-01-11T16:50:58.032Z,100813.38
2023-01-11T16:53:26.818Z,100803.31
2023-01-11T16:55:53.511Z,100818.97
2023-01-11T16:58:30.183Z,100805.97
2023-01-11T17:01:06.384Z,100821.03
2023-01-11T17:03:44.021Z,100811.25
2023-01-11T17:06:13.601Z,100819.06
2023-01-11T17:08:41.489Z,100810.94
2023-01-11T17:11:41.847Z,100825.41
2023-01-11T17:14:19.877Z,100813.88
2023-01-11T17:16:52.782Z,100809.75
2023-01-11T17:19:24.065Z,100795.88
2023-01-11T17:22:04.717Z,100787.28
2023-01-11T17:24:35.257Z,100807.81
2023-01-11T17:27:03.207Z,100817.13
2023-01-11T17:29:35.247Z,100797.19
2023-01-11T17:32:05.859Z,100793.78
2023-01-11T17:34:38.088Z,100794.81
2023-01-11T17:37:13.658Z,100798.38
2023-01-11T17:39:50.308Z,100806.16
2023-01-11T17:42:36.426Z,100782.84
2023-01-11T17:45:18.613Z,100800.72
2023-01-11T17:47:49.722Z,100792.72
2023-01-11T17:50:31.601Z,100776.63
2023-01-11T17:53:02.544Z,100794.47
2023-01-11T17:55:29.974Z,100781.03
2023-01-11T17:58:20.216Z,100758.44
2023-01-11T18:01:15.985Z,100778.19
2023-01-11T18:03:44.613Z,100759.59
2023-01-11T18:06:36.258Z,100762.25
2023-01-11T18:09:06.170Z,100765.09
2023-01-11T18:11:39.030Z,100762.09
2023-01-11T18:14:16.974Z,100778.66
2023-01-11T18:17:00.111Z,100760.38
2023-01-11T18:19:39.095Z,100783.66
2023-01-11T18:22:30.221Z,100791.59
2023-01-11T18:25:04.337Z,100763.44
2023-01-11T18:27:33.710Z,100749.09
2023-01-11T18:30:09.824Z,100764.44
2023-01-11T18:32:42.503Z,100774.09
2023-01-11T18:35:20.090Z,100785.16
2023-01-11T18:37:47.331Z,100773.94
2023-01-11T18:40:18.828Z,100779.22
2023-01-11T18:42:51.688Z,100780.72
2023-01-11T18:45:18.659Z,100769.34
2023-01-11T18:47:45.685Z,100794.03
2023-01-11T18:50:18.175Z,100768.00
2023-01-11T18:52:46.456Z,100788.09
2023-01-11T18:55:14.674Z,100785.72
2023-01-11T18:57:42.472Z,100794.28
2023-01-11T19:00:14.386Z,100797.84
2023-01-11T19:02:43.222Z,100799.59
2023-01-11T19:05:15.156Z,100793.25
2023-01-11T19:07:42.335Z,100795.78
2023-01-11T19:10:10.883Z,100799.31
2023-01-11T19:12:37.786Z,100799.03
2023-01-11T19:15:04.944Z,100789.00
2023-01-11T19:17:32.411Z,100810.25
2023-01-11T19:19:59.247Z,100803.47
2023-01-11T19:22:26.839Z,100813.81
2023-01-11T19:24:54.901Z,100819.13
2023-01-11T19:27:22.770Z,100831.53
2023-01-11T19:29:49.538Z,100818.38
2023-01-11T19:32:18.566Z,100809.34
2023-01-11T19:34:45.601Z,100852.03
2023-01-11T19:37:12.646Z,100837.28
2023-01-11T19:39:40.362Z,100830.66
2023-01-11T19:42:07.757Z,100836.56
2023-01-11T19:44:38.995Z,100830.06
2023-01-11T19:47:12.547Z,100839.25
2023-01-11T19:49:40.588Z,100820.03
2023-01-11T19:52:14.730Z,100835.25
2023-01-11T19:54:42.749Z,100828.59
2023-01-11T19:57:14.760Z,100807.31
2023-01-11T19:59:42.634Z,100808.81
2023-01-11T20:02:12.779Z,100801.56
2023-01-11T20:04:40.233Z,100805.25
2023-01-11T20:07:08.305Z,100791.38
2023-01-11T20:09:39.889Z,100810.59
2023-01-11T20:12:08.625Z,100797.84
2023-01-11T20:14:36.459Z,100800.06
2023-01-11T20:17:03.469Z,100795.78
2023-01-11T20:19:30.320Z,100801.97
2023-01-11T20:21:57.182Z,100811.13
2023-01-11T20:24:30.219Z,100803.13
2023-01-11T20:27:01.928Z,100803.44
2023-01-11T20:29:28.725Z,100804.91
2023-01-11T20:31:58.192Z,100807.28
2023-01-11T20:34:29.896Z,100786.31
2023-01-11T20:36:56.625Z,100794.72
2023-01-11T20:39:24.125Z,100808.00
2023-01-11T20:41:51.061Z,100789.56
2023-01-11T20:44:24.376Z,100797.84
2023-01-11T20:46:52.983Z,100797.09
2023-01-11T20:49:23.187Z,100784.53
2023-01-11T20:51:50.335Z,100776.59
2023-01-11T20:54:17.155Z,100794.28
2023-01-11T20:56:46.578Z,100782.03
2023-01-11T20:59:16.564Z,100787.81
2023-01-11T21:01:44.117Z,100786.63
2023-01-11T21:04:12.048Z,100782.06
2023-01-11T21:06:41.052Z,100778.06
2023-01-11T21:09:09.741Z,100776.28
2023-01-11T21:14:04.951Z,100779.84
2023-01-11T21:16:32.471Z,100769.16
2023-01-11T21:19:03.685Z,100762.81
2023-01-11T21:21:33.531Z,100763.84
2023-01-11T21:24:02.926Z,100761.19
2023-01-11T21:26:30.570Z,100763.72
2023-01-11T21:28:59.882Z,100759.56
2023-01-11T21:31:31.873Z,100755.22
2023-01-11T21:34:00.402Z,100752.56
2023-01-11T21:36:29.366Z,100750.53
2023-01-11T21:38:58.040Z,100740.94
2023-01-11T21:41:46.153Z,100748.16
2023-01-11T21:44:14.445Z,100751.41
2023-01-11T21:46:41.719Z,100737.50
2023-01-11T21:49:09.180Z,100739.91
2023-01-11T21:51:36.365Z,100744.75
2023-01-11T21:54:05.700Z,100748.41
2023-01-11T21:56:32.476Z,100750.16
2023-01-11T21:58:59.424Z,100758.88
2023-01-11T22:01:26.313Z,100758.41
2023-01-11T22:03:53.548Z,100750.13
2023-01-11T22:06:20.391Z,100745.72
2023-01-11T22:08:47.574Z,100750.31
2023-01-11T22:11:16.279Z,100743.31
2023-01-11T22:13:43.425Z,100745.09
2023-01-11T22:16:15.254Z,100752.16
2023-01-11T22:18:43.403Z,100748.91
2023-01-11T22:21:14.507Z,100750.94
2023-01-11T22:23:45.459Z,100741.19
2023-01-11T22:26:13.503Z,100746.22
2023-01-11T22:29:00.133Z,100745.19
2023-01-11T22:31:28.459Z,100742.69
2023-01-11T22:33:56.088Z,100735.00
2023-01-11T22:36:26.002Z,100738.06
2023-01-11T22:38:53.363Z,100743.97
2023-01-11T22:41:20.824Z,100731.53
2023-01-11T22:43:47.665Z,100744.72
2023-01-11T22:46:17.491Z,100737.19
2023-01-11T22:48:44.727Z,100742.19
2023-01-11T22:51:14.467Z,100738.47
2023-01-11T22:53:43.738Z,100734.19
2023-01-11T22:56:12.445Z,100724.00
2023-01-11T22:58:39.675Z,100736.97
2023-01-11T23:01:30.226Z,100730.25
2023-01-11T23:03:57.634Z,100718.91
2023-01-11T23:06:36.767Z,100715.50
2023-01-11T23:09:05.185Z,100712.13
2023-01-11T23:11:54.360Z,100701.44
2023-01-11T23:14:21.452Z,100713.88
2023-01-11T23:16:50.636Z,100709.75
2023-01-11T23:19:20.121Z,100704.09
2023-01-11T23:21:47.852Z,100705.59
2023-01-11T23:24:16.465Z,100705.59
2023-01-11T23:26:44.256Z,100690.53
2023-01-11T23:29:11.232Z,100692.28
2023-01-11T23:31:39.028Z,100679.84
2023-01-11T23:34:09.884Z,100685.00
2023-01-11T23:36:39.681Z,100689.31
2023-01-11T23:39:18.779Z,100694.84
2023-01-11T23:42:07.800Z,100695.47
2023-01-11T23:44:37.191Z,100690.31
2023-01-11T23:47:22.195Z,100686.03
2023-01-11T23:49:50.003Z,100683.06
2023-01-11T23:52:18.456Z,100684.06
2023-01-11T23:54:45.864Z,100702.00
2023-01-11T23:57:14.043Z,100685.69
2023-01-11T23:59:41.926Z,100685.97
